This is the latest recevied weather packets stored in our database for station/object WK7G. If no packets are shown the sender has not sent any weather packets the latest 10 day(s).
| Time | Temp. | Humidity | Pressure | Rain* | Wind** | Luminosity | Snow |
|---|---|---|---|---|---|---|---|
| 1777681047 | 16.67° C | 24% | 1013.1 hPa | 0 mm | - | 287 W/m² | - |
| 1777680745 | 16.67° C | 25% | 1013.3 hPa | 0 mm | - | 271 W/m² | - |
| 1777680442 | 16.67° C | 25% | 1013 hPa | 0 mm | - | 318 W/m² | - |
| 1777680140 | 17.22° C | 28% | 1013.4 hPa | 0 mm | - | 338 W/m² | - |
| 1777679836 | 17.22° C | 23% | 1013.3 hPa | 0 mm | - | 354 W/m² | - |
| 1777679532 | 17.22° C | 23% | 1013.3 hPa | 0 mm | - | 367 W/m² | - |
| 1777679228 | 17.22° C | 21% | 1013.4 hPa | 0 mm | - | 387 W/m² | - |
| 1777678925 | 16.67° C | 22% | 1013.4 hPa | 0 mm | - | 403 W/m² | - |
| 1777678623 | 16.67° C | 22% | 1013.4 hPa | 0 mm | - | 413 W/m² | - |
| 1777678320 | 17.22° C | 22% | 1013.5 hPa | 0 mm | - | 426 W/m² | - |
| 1777678015 | 16.67° C | 22% | 1013.5 hPa | 0 mm | - | 440 W/m² | - |
| 1777677713 | 17.22° C | 23% | 1013.3 hPa | 0 mm | - | 464 W/m² | - |
| 1777677411 | 16.67° C | 24% | 1013.3 hPa | 0 mm | - | 451 W/m² | - |
| 1777677109 | 16.67° C | 27% | 1013.1 hPa | 0 mm | - | 478 W/m² | - |
| 1777676807 | 16.67° C | 24% | 1013.4 hPa | 0 mm | - | 466 W/m² | - |
| 1777676505 | 17.22° C | 23% | 1013.5 hPa | 0 mm | - | 492 W/m² | - |
| 1777676202 | 16.67° C | 22% | 1013.5 hPa | 0 mm | - | 504 W/m² | - |
| 1777675898 | 17.78° C | 28% | 1013.4 hPa | 0 mm | - | 520 W/m² | - |
| 1777675596 | 16.67° C | 29% | 1013.5 hPa | 0 mm | - | 530 W/m² | - |
| 1777675293 | 16.67° C | 23% | 1013.5 hPa | 0 mm | - | 549 W/m² | - |
| 1777674989 | 16.67° C | 25% | 1013.6 hPa | 0 mm | - | 545 W/m² | - |
| 1777674686 | 16.11° C | 22% | 1013.6 hPa | 0 mm | - | 535 W/m² | - |
| 1777674388 | 16.11° C | 27% | 1013.6 hPa | 0 mm | - | 559 W/m² | - |
| 1777674080 | 16.67° C | 23% | 1013.6 hPa | 0 mm | - | 577 W/m² | - |
| 1777673776 | 16.11° C | 30% | 1013.7 hPa | 0 mm | - | 586 W/m² | - |
* Rain latest hour (hover to see other rain measurements)
** Current wind speed in m/s (hover to see current wind gust speed)